Terminal Aerodrome Forecast
Issued by NWS Louisville, KY

Home | Current Version | Previous Version | Text Only | Print | Product List | Glossary On
Versions: 1 2 3 4 5 6 7 8 9 10 11 12 13 14 15 16
000
FTUS43 KLMK 181900 AAA
TAFLEX
TAF AMD
KLEX 181918Z 1819/1918 25009G18KT P6SM BKN035
     FM190100 21006KT P6SM SKC
     FM191300 20015G24KT P6SM BKN150=

USA.gov is the U.S. government's official web portal to all federal, state and local government web resources and services.